sensor_id;sensor_type;location;lat;lon;timestamp;P1;durP1;ratioP1;P2;durP2;ratioP2
7883;SDS011;3987;51.458;7.238;2022-12-15T00:08:05;29.13;;;16.20;;
7883;SDS011;3987;51.458;7.238;2022-12-15T00:23:27;24.97;;;15.90;;
7883;SDS011;3987;51.458;7.238;2022-12-15T00:38:46;28.03;;;17.57;;
7883;SDS011;3987;51.458;7.238;2022-12-15T00:53:48;28.53;;;17.70;;
7883;SDS011;3987;51.458;7.238;2022-12-15T01:09:08;27.10;;;16.03;;
7883;SDS011;3987;51.458;7.238;2022-12-15T01:24:28;22.93;;;14.57;;
7883;SDS011;3987;51.458;7.238;2022-12-15T01:39:29;26.87;;;14.70;;
7883;SDS011;3987;51.458;7.238;2022-12-15T01:54:50;25.47;;;15.50;;
7883;SDS011;3987;51.458;7.238;2022-12-15T02:09:54;31.40;;;16.53;;
7883;SDS011;3987;51.458;7.238;2022-12-15T02:40:20;26.47;;;15.73;;
7883;SDS011;3987;51.458;7.238;2022-12-15T03:10:40;23.60;;;15.20;;
7883;SDS011;3987;51.458;7.238;2022-12-15T03:25:42;27.80;;;15.40;;
7883;SDS011;3987;51.458;7.238;2022-12-15T03:40:46;26.43;;;15.30;;
7883;SDS011;3987;51.458;7.238;2022-12-15T03:55:47;27.93;;;15.60;;
7883;SDS011;3987;51.458;7.238;2022-12-15T04:10:47;24.60;;;16.67;;
7883;SDS011;3987;51.458;7.238;2022-12-15T04:25:48;35.07;;;16.13;;
7883;SDS011;3987;51.458;7.238;2022-12-15T04:41:07;21.90;;;15.03;;
7883;SDS011;3987;51.458;7.238;2022-12-15T04:56:27;23.87;;;15.37;;
7883;SDS011;3987;51.458;7.238;2022-12-15T05:11:47;28.07;;;15.10;;
7883;SDS011;3987;51.458;7.238;2022-12-15T05:27:06;23.77;;;14.93;;
7883;SDS011;3987;51.458;7.238;2022-12-15T05:42:25;23.57;;;15.47;;
7883;SDS011;3987;51.458;7.238;2022-12-15T05:57:25;24.13;;;14.77;;
7883;SDS011;3987;51.458;7.238;2022-12-15T06:12:27;19.00;;;14.20;;
7883;SDS011;3987;51.458;7.238;2022-12-15T06:27:27;26.33;;;16.27;;
7883;SDS011;3987;51.458;7.238;2022-12-15T06:42:27;27.40;;;17.10;;
7883;SDS011;3987;51.458;7.238;2022-12-15T06:57:28;28.40;;;14.80;;
7883;SDS011;3987;51.458;7.238;2022-12-15T07:12:28;24.70;;;17.43;;
7883;SDS011;3987;51.458;7.238;2022-12-15T07:27:29;30.47;;;18.30;;
7883;SDS011;3987;51.458;7.238;2022-12-15T07:42:29;24.97;;;18.13;;
7883;SDS011;3987;51.458;7.238;2022-12-15T07:57:30;34.92;;;20.98;;
7883;SDS011;3987;51.458;7.238;2022-12-15T08:12:31;28.00;;;18.57;;
7883;SDS011;3987;51.458;7.238;2022-12-15T08:27:32;25.53;;;17.00;;
7883;SDS011;3987;51.458;7.238;2022-12-15T08:42:33;28.97;;;19.30;;
7883;SDS011;3987;51.458;7.238;2022-12-15T08:57:34;30.13;;;18.20;;
7883;SDS011;3987;51.458;7.238;2022-12-15T09:12:34;27.93;;;18.27;;
7883;SDS011;3987;51.458;7.238;2022-12-15T09:27:36;29.00;;;18.97;;
7883;SDS011;3987;51.458;7.238;2022-12-15T09:42:36;31.63;;;19.50;;
7883;SDS011;3987;51.458;7.238;2022-12-15T09:57:43;29.77;;;18.33;;
7883;SDS011;3987;51.458;7.238;2022-12-15T10:12:48;25.77;;;18.17;;
7883;SDS011;3987;51.458;7.238;2022-12-15T10:43:14;30.97;;;18.97;;
7883;SDS011;3987;51.458;7.238;2022-12-15T10:58:26;26.70;;;17.03;;
7883;SDS011;3987;51.458;7.238;2022-12-15T11:13:26;24.40;;;18.43;;
7883;SDS011;3987;51.458;7.238;2022-12-15T11:28:33;24.73;;;16.90;;
7883;SDS011;3987;51.458;7.238;2022-12-15T11:43:59;26.03;;;17.87;;
7883;SDS011;3987;51.458;7.238;2022-12-15T12:14:44;24.57;;;16.73;;
7883;SDS011;3987;51.458;7.238;2022-12-15T12:30:12;24.30;;;17.20;;
7883;SDS011;3987;51.458;7.238;2022-12-15T12:45:14;23.87;;;17.30;;
7883;SDS011;3987;51.458;7.238;2022-12-15T13:00:17;28.40;;;18.00;;
7883;SDS011;3987;51.458;7.238;2022-12-15T13:30:26;23.30;;;17.27;;
7883;SDS011;3987;51.458;7.238;2022-12-15T14:00:37;21.20;;;15.30;;
7883;SDS011;3987;51.458;7.238;2022-12-15T14:15:40;22.27;;;14.77;;
7883;SDS011;3987;51.458;7.238;2022-12-15T14:30:42;25.77;;;15.77;;
7883;SDS011;3987;51.458;7.238;2022-12-15T14:45:42;21.43;;;14.63;;
7883;SDS011;3987;51.458;7.238;2022-12-15T15:00:50;25.20;;;16.17;;
7883;SDS011;3987;51.458;7.238;2022-12-15T15:15:52;28.27;;;17.23;;
7883;SDS011;3987;51.458;7.238;2022-12-15T15:30:55;40.63;;;21.27;;
7883;SDS011;3987;51.458;7.238;2022-12-15T15:46:11;43.50;;;22.40;;
7883;SDS011;3987;51.458;7.238;2022-12-15T16:01:13;46.83;;;23.13;;
7883;SDS011;3987;51.458;7.238;2022-12-15T16:16:16;45.07;;;22.83;;
7883;SDS011;3987;51.458;7.238;2022-12-15T16:31:28;47.90;;;24.17;;
7883;SDS011;3987;51.458;7.238;2022-12-15T16:46:30;62.10;;;31.57;;
7883;SDS011;3987;51.458;7.238;2022-12-15T17:01:30;58.73;;;27.60;;
7883;SDS011;3987;51.458;7.238;2022-12-15T17:16:31;70.53;;;33.00;;
7883;SDS011;3987;51.458;7.238;2022-12-15T17:31:31;67.37;;;32.90;;
7883;SDS011;3987;51.458;7.238;2022-12-15T17:46:31;70.07;;;33.23;;
7883;SDS011;3987;51.458;7.238;2022-12-15T18:01:32;67.70;;;32.37;;
7883;SDS011;3987;51.458;7.238;2022-12-15T18:16:32;78.23;;;35.07;;
7883;SDS011;3987;51.458;7.238;2022-12-15T18:31:33;69.70;;;33.80;;
7883;SDS011;3987;51.458;7.238;2022-12-15T18:46:33;68.80;;;33.77;;
7883;SDS011;3987;51.458;7.238;2022-12-15T19:01:35;66.27;;;32.70;;
7883;SDS011;3987;51.458;7.238;2022-12-15T19:16:35;64.60;;;31.20;;
7883;SDS011;3987;51.458;7.238;2022-12-15T19:31:54;61.33;;;30.40;;
7883;SDS011;3987;51.458;7.238;2022-12-15T19:46:55;66.00;;;31.67;;
7883;SDS011;3987;51.458;7.238;2022-12-15T20:01:55;65.63;;;31.03;;
7883;SDS011;3987;51.458;7.238;2022-12-15T20:16:56;64.37;;;29.40;;
7883;SDS011;3987;51.458;7.238;2022-12-15T20:31:57;56.77;;;28.83;;
7883;SDS011;3987;51.458;7.238;2022-12-15T20:46:59;57.00;;;27.50;;
7883;SDS011;3987;51.458;7.238;2022-12-15T21:02:00;57.17;;;27.50;;
7883;SDS011;3987;51.458;7.238;2022-12-15T21:17:01;62.47;;;29.33;;
7883;SDS011;3987;51.458;7.238;2022-12-15T21:32:01;56.70;;;26.83;;
7883;SDS011;3987;51.458;7.238;2022-12-15T21:47:04;53.20;;;26.97;;
7883;SDS011;3987;51.458;7.238;2022-12-15T22:02:23;58.70;;;29.00;;
7883;SDS011;3987;51.458;7.238;2022-12-15T22:17:25;53.57;;;28.00;;
7883;SDS011;3987;51.458;7.238;2022-12-15T22:32:25;63.70;;;30.43;;
7883;SDS011;3987;51.458;7.238;2022-12-15T22:47:26;56.87;;;27.50;;
7883;SDS011;3987;51.458;7.238;2022-12-15T23:02:27;64.93;;;28.67;;
7883;SDS011;3987;51.458;7.238;2022-12-15T23:17:30;56.50;;;28.13;;
7883;SDS011;3987;51.458;7.238;2022-12-15T23:32:30;61.53;;;26.53;;
7883;SDS011;3987;51.458;7.238;2022-12-15T23:47:32;58.90;;;26.90;;
